Time;durP1;ratioP1;P1;durP2;ratioP2;P2;SDS_P1;SDS_P2;PMS_P1;PMS_P2;Temp;Humidity;BMP_temperature;BMP_pressure;BME280_temperature;BME280_humidity;BME280_pressure;Samples;Min_cycle;Max_cycle;Signal;HPM_P1;HPM_P2
2021/07/02 00:01:19;;;;;;;3.00;2.60;;;;;;;;;;4149887;34;20138;-68
2021/07/02 00:03:45;;;;;;;3.28;2.92;;;;;;;;;;4149821;34;20151;-68
2021/07/02 00:06:11;;;;;;;6.72;2.35;;;;;;;;;;4148494;34;20186;-68
2021/07/02 00:08:37;;;;;;;3.65;2.60;;;;;;;;;;4149730;34;20111;-68
2021/07/02 00:11:03;;;;;;;2.40;2.20;;;;;;;;;;4149623;34;20114;-68
2021/07/02 00:13:29;;;;;;;5.55;2.53;;;;;;;;;;4149745;34;20429;-68
2021/07/02 00:44:47;;;;;;;2.30;2.10;;;;;;;;;;4510731;28;20091;-69
2021/07/02 00:47:14;;;;;;;2.60;2.40;;;;;;;;;;4190261;34;20107;-69
2021/07/02 00:49:40;;;;;;;2.42;2.22;;;;;;;;;;4182835;34;20221;-69
2021/07/02 00:52:07;;;;;;;2.47;2.28;;;;;;;;;;4177114;34;20122;-68
2021/07/02 00:54:34;;;;;;;2.37;2.15;;;;;;;;;;4176884;34;20450;-69
2021/07/02 00:57:00;;;;;;;2.72;2.28;;;;;;;;;;4178193;34;20102;-71
2021/07/02 00:59:26;;;;;;;4.35;2.35;;;;;;;;;;4178767;34;20114;-68
2021/07/02 01:01:52;;;;;;;2.47;2.28;;;;;;;;;;4166121;34;20122;-69
2021/07/02 01:04:18;;;;;;;3.10;2.47;;;;;;;;;;4166107;34;20173;-70
2021/07/02 01:06:45;;;;;;;2.72;2.53;;;;;;;;;;4178991;34;20129;-68
2021/07/02 01:09:11;;;;;;;6.40;2.87;;;;;;;;;;4178668;34;20134;-69
2021/07/02 01:11:37;;;;;;;3.22;2.53;;;;;;;;;;4166167;34;20202;-70
2021/07/02 01:14:03;;;;;;;4.53;2.50;;;;;;;;;;4166051;34;20126;-70
2021/07/02 01:16:29;;;;;;;6.43;2.75;;;;;;;;;;4178987;34;20141;-69
2021/07/02 01:18:55;;;;;;;3.78;2.67;;;;;;;;;;4178649;34;20478;-70
2021/07/02 01:21:21;;;;;;;3.75;3.00;;;;;;;;;;4179217;34;20164;-68
2021/07/02 01:23:47;;;;;;;5.18;3.28;;;;;;;;;;4178644;34;20661;-69
2021/07/02 01:26:13;;;;;;;9.05;3.20;;;;;;;;;;4166025;34;20511;-68
2021/07/02 01:28:39;;;;;;;4.82;2.85;;;;;;;;;;4165935;34;20133;-68
2021/07/02 01:31:05;;;;;;;5.82;2.60;;;;;;;;;;4178974;34;20466;-67
2021/07/02 01:33:30;;;;;;;4.82;3.20;;;;;;;;;;4178710;34;20503;-69
2021/07/02 01:36:05;;;;;;;6.40;3.90;;;;;;;;;;4178508;34;20126;-68
2021/07/02 01:38:31;;;;;;;6.95;3.33;;;;;;;;;;4178396;34;20214;-69
2021/07/02 01:40:56;;;;;;;5.47;3.90;;;;;;;;;;4178434;34;20561;-69
2021/07/02 01:43:24;;;;;;;6.32;3.90;;;;;;;;;;4176773;34;20522;-69
2021/07/02 01:45:50;;;;;;;6.10;3.95;;;;;;;;;;4178298;34;20111;-70
2021/07/02 01:48:16;;;;;;;5.68;4.03;;;;;;;;;;4178644;34;20203;-71
2021/07/02 01:50:42;;;;;;;10.88;3.78;;;;;;;;;;4178217;34;20149;-73
2021/07/02 01:53:08;;;;;;;8.68;3.75;;;;;;;;;;4178376;34;20117;-71
2021/07/02 01:55:34;;;;;;;6.72;3.28;;;;;;;;;;4165290;34;20232;-70
2021/07/02 01:58:00;;;;;;;7.37;4.32;;;;;;;;;;4178423;34;20533;-71
2021/07/02 02:00:26;;;;;;;5.28;3.67;;;;;;;;;;4165335;34;20238;-72
2021/07/02 02:02:52;;;;;;;5.93;3.72;;;;;;;;;;4165541;34;20578;-73
2021/07/02 02:05:18;;;;;;;4.30;3.50;;;;;;;;;;4165553;34;20652;-71
2021/07/02 02:07:45;;;;;;;2.42;2.22;;;;;;;;;;4165757;34;20161;-72
2021/07/02 02:10:11;;;;;;;4.32;2.67;;;;;;;;;;4178454;34;20122;-72
2021/07/02 02:12:38;;;;;;;5.28;2.83;;;;;;;;;;4178261;34;20129;-70
2021/07/02 02:15:06;;;;;;;3.37;2.53;;;;;;;;;;4178095;34;20110;-70
2021/07/02 02:17:33;;;;;;;4.30;2.97;;;;;;;;;;4178375;34;20190;-69
2021/07/02 02:19:59;;;;;;;3.92;2.75;;;;;;;;;;4165381;34;20557;-69
2021/07/02 02:22:25;;;;;;;5.12;2.70;;;;;;;;;;4178224;34;20121;-69
2021/07/02 02:24:51;;;;;;;6.53;2.28;;;;;;;;;;4165648;34;20117;-70
2021/07/02 02:27:17;;;;;;;4.10;2.47;;;;;;;;;;4165735;34;20137;-70
2021/07/02 02:29:43;;;;;;;4.95;2.92;;;;;;;;;;4178505;34;20431;-71
2021/07/02 02:32:09;;;;;;;4.78;2.80;;;;;;;;;;4165616;34;20202;-72
2021/07/02 02:34:35;;;;;;;2.85;2.20;;;;;;;;;;4178481;34;20096;-71
2021/07/02 02:37:01;;;;;;;2.90;2.60;;;;;;;;;;4178562;34;20286;-71
2021/07/02 02:39:27;;;;;;;2.75;2.40;;;;;;;;;;4178219;34;20106;-71
2021/07/02 02:41:54;;;;;;;4.50;2.85;;;;;;;;;;4165685;34;20097;-70
2021/07/02 02:44:19;;;;;;;3.10;2.75;;;;;;;;;;4177393;34;20198;-70
2021/07/02 02:46:45;;;;;;;5.53;2.45;;;;;;;;;;4165227;34;20134;-72
2021/07/02 02:49:11;;;;;;;6.07;2.25;;;;;;;;;;4165348;34;20141;-71
2021/07/02 02:51:37;;;;;;;5.65;2.80;;;;;;;;;;4177848;34;20536;-71
2021/07/02 02:54:03;;;;;;;9.82;3.20;;;;;;;;;;4165117;34;20572;-68
2021/07/02 02:56:29;;;;;;;4.62;2.45;;;;;;;;;;4165031;34;20230;-69
2021/07/02 02:58:55;;;;;;;3.47;2.80;;;;;;;;;;4177859;34;20550;-69
2021/07/02 03:01:21;;;;;;;5.50;2.75;;;;;;;;;;4165848;34;20722;-70
2021/07/02 03:03:47;;;;;;;3.00;2.50;;;;;;;;;;4164991;34;20114;-72
2021/07/02 03:06:14;;;;;;;3.45;3.12;;;;;;;;;;4177747;34;20643;-73
2021/07/02 03:08:40;;;;;;;6.18;3.20;;;;;;;;;;4177599;34;20114;-74
2021/07/02 03:11:05;;;;;;;2.75;2.40;;;;;;;;;;4177716;34;20126;-70
2021/07/02 03:13:31;;;;;;;4.32;3.20;;;;;;;;;;4164818;34;20130;-70
2021/07/02 03:15:58;;;;;;;7.93;3.85;;;;;;;;;;4177610;34;20156;-68
2021/07/02 03:18:23;;;;;;;3.92;2.83;;;;;;;;;;4152475;34;20126;-67
2021/07/02 03:20:49;;;;;;;4.18;2.97;;;;;;;;;;4174646;34;20128;-68
2021/07/02 03:23:15;;;;;;;3.30;3.00;;;;;;;;;;4175451;34;20531;-69
2021/07/02 03:25:41;;;;;;;3.90;2.85;;;;;;;;;;4175677;34;20149;-69
2021/07/02 03:28:07;;;;;;;2.97;2.67;;;;;;;;;;4176003;34;20122;-68
2021/07/02 03:30:33;;;;;;;3.65;3.05;;;;;;;;;;4176212;34;20114;-68
2021/07/02 03:32:59;;;;;;;5.53;2.80;;;;;;;;;;4176314;34;20122;-69
2021/07/02 03:35:25;;;;;;;7.28;3.40;;;;;;;;;;4177000;34;20153;-67
2021/07/02 03:37:51;;;;;;;4.78;2.83;;;;;;;;;;4164906;34;20131;-68
2021/07/02 03:40:17;;;;;;;4.43;3.30;;;;;;;;;;4177555;34;20529;-67
2021/07/02 03:42:42;;;;;;;3.20;2.70;;;;;;;;;;4177362;34;20146;-68
2021/07/02 03:45:09;;;;;;;3.92;3.53;;;;;;;;;;4177005;34;20145;-68
2021/07/02 03:47:35;;;;;;;4.18;3.15;;;;;;;;;;4177384;34;20486;-67
2021/07/02 03:50:01;;;;;;;5.18;2.97;;;;;;;;;;4177619;34;20117;-69
2021/07/02 03:52:27;;;;;;;6.60;3.28;;;;;;;;;;4164730;34;20210;-69
2021/07/02 03:54:53;;;;;;;12.00;3.58;;;;;;;;;;4177069;34;20101;-69
2021/07/02 03:57:19;;;;;;;5.97;3.80;;;;;;;;;;4177205;34;20222;-68
2021/07/02 03:59:47;;;;;;;4.45;3.40;;;;;;;;;;4177122;34;20126;-69
2021/07/02 04:02:13;;;;;;;6.32;3.17;;;;;;;;;;4177472;34;20101;-69
2021/07/02 04:04:39;;;;;;;6.40;3.10;;;;;;;;;;4164557;34;20090;-67
2021/07/02 04:07:05;;;;;;;4.07;2.83;;;;;;;;;;4177274;34;20560;-68
2021/07/02 04:09:32;;;;;;;4.87;2.85;;;;;;;;;;4177175;34;20229;-68
2021/07/02 04:11:59;;;;;;;6.62;3.33;;;;;;;;;;4153150;34;20192;-68
2021/07/02 04:14:25;;;;;;;3.90;2.90;;;;;;;;;;4164637;34;20106;-69
2021/07/02 04:16:51;;;;;;;5.10;3.00;;;;;;;;;;4177101;34;20134;-69
2021/07/02 04:19:17;;;;;;;3.80;3.00;;;;;;;;;;4177124;34;20133;-69
2021/07/02 04:21:43;;;;;;;3.47;3.17;;;;;;;;;;4153335;34;20235;-67
2021/07/02 04:24:09;;;;;;;6.20;3.08;;;;;;;;;;4164233;34;20206;-68
2021/07/02 04:26:34;;;;;;;3.80;3.25;;;;;;;;;;4176964;34;20206;-67
2021/07/02 04:29:00;;;;;;;4.43;3.15;;;;;;;;;;4177049;34;20198;-67
2021/07/02 04:31:26;;;;;;;4.65;3.92;;;;;;;;;;4176491;34;20439;-67
2021/07/02 04:33:52;;;;;;;4.72;3.10;;;;;;;;;;4176635;34;20178;-69
2021/07/02 04:36:18;;;;;;;4.75;3.30;;;;;;;;;;4176757;34;20545;-68
2021/07/02 04:38:44;;;;;;;5.72;3.03;;;;;;;;;;4176615;34;20101;-68
2021/07/02 04:41:10;;;;;;;4.03;3.42;;;;;;;;;;4176898;34;20141;-68
2021/07/02 04:43:36;;;;;;;4.80;3.17;;;;;;;;;;4163842;34;20225;-68
2021/07/02 04:46:02;;;;;;;4.90;3.00;;;;;;;;;;4164401;34;20122;-68
2021/07/02 04:48:28;;;;;;;3.97;3.50;;;;;;;;;;4164198;34;20114;-68
2021/07/02 04:50:54;;;;;;;3.92;3.10;;;;;;;;;;4164170;34;20629;-68
2021/07/02 04:53:20;;;;;;;2.67;2.47;;;;;;;;;;4176665;34;20142;-69
2021/07/02 04:55:47;;;;;;;4.50;3.40;;;;;;;;;;4176657;34;20114;-70
2021/07/02 04:58:13;;;;;;;3.90;3.45;;;;;;;;;;4176715;34;20470;-68
2021/07/02 05:00:39;;;;;;;6.87;3.17;;;;;;;;;;4177085;34;20122;-69
2021/07/02 05:03:05;;;;;;;4.45;3.37;;;;;;;;;;4164031;34;20132;-68
2021/07/02 05:05:31;;;;;;;5.57;3.70;;;;;;;;;;4176515;34;20141;-69
2021/07/02 05:07:57;;;;;;;4.43;3.42;;;;;;;;;;4176691;34;20546;-69
2021/07/02 05:10:23;;;;;;;3.62;3.15;;;;;;;;;;4152636;34;20134;-69
2021/07/02 05:12:49;;;;;;;4.25;2.90;;;;;;;;;;4176906;34;20219;-70
2021/07/02 05:15:15;;;;;;;4.62;3.28;;;;;;;;;;4164172;34;20118;-67
2021/07/02 05:17:43;;;;;;;5.60;3.47;;;;;;;;;;4176562;34;20130;-68
2021/07/02 05:20:09;;;;;;;4.07;3.10;;;;;;;;;;4164115;34;20098;-68
2021/07/02 05:22:35;;;;;;;3.37;2.65;;;;;;;;;;4176766;34;20106;-68
2021/07/02 05:25:02;;;;;;;3.58;2.97;;;;;;;;;;4176565;34;20136;-68
2021/07/02 05:27:27;;;;;;;11.27;3.72;;;;;;;;;;4176551;34;20141;-67
2021/07/02 05:29:53;;;;;;;3.53;2.83;;;;;;;;;;4163794;34;20211;-68
2021/07/02 05:32:19;;;;;;;4.80;2.95;;;;;;;;;;4176664;34;20454;-68
2021/07/02 05:34:45;;;;;;;4.97;3.28;;;;;;;;;;4176258;34;20466;-68
2021/07/02 05:37:11;;;;;;;4.97;3.30;;;;;;;;;;4163980;34;20145;-68
2021/07/02 05:39:37;;;;;;;4.32;3.03;;;;;;;;;;4163604;34;20531;-69
2021/07/02 05:42:03;;;;;;;6.18;3.37;;;;;;;;;;4176530;34;20106;-68
2021/07/02 05:44:29;;;;;;;3.50;3.20;;;;;;;;;;4177976;34;20134;-68
2021/07/02 05:46:55;;;;;;;5.25;3.17;;;;;;;;;;4178747;34;20251;-68
2021/07/02 05:49:21;;;;;;;3.58;2.62;;;;;;;;;;4178283;34;20592;-70
2021/07/02 05:51:47;;;;;;;5.43;3.72;;;;;;;;;;4178541;34;20134;-68
2021/07/02 05:54:14;;;;;;;3.10;2.80;;;;;;;;;;4178211;34;20466;-69
2021/07/02 05:56:40;;;;;;;13.77;3.28;;;;;;;;;;4178669;34;20110;-68
2021/07/02 05:59:06;;;;;;;7.18;3.40;;;;;;;;;;4178611;34;20198;-68
2021/07/02 06:01:32;;;;;;;4.90;3.20;;;;;;;;;;4178406;34;20127;-68
2021/07/02 06:03:58;;;;;;;4.72;3.08;;;;;;;;;;4178154;34;20122;-67
2021/07/02 06:06:24;;;;;;;2.97;2.67;;;;;;;;;;4178525;34;20218;-67
2021/07/02 06:08:50;;;;;;;6.15;2.97;;;;;;;;;;4165772;34;20450;-67
2021/07/02 06:11:16;;;;;;;4.10;2.90;;;;;;;;;;4165685;34;20102;-67
2021/07/02 06:13:43;;;;;;;3.08;2.60;;;;;;;;;;4178129;34;20114;-67
2021/07/02 06:16:09;;;;;;;5.78;2.50;;;;;;;;;;4178614;34;20204;-70
2021/07/02 06:18:35;;;;;;;2.80;2.30;;;;;;;;;;4178280;34;20138;-69
2021/07/02 06:21:00;;;;;;;3.00;2.58;;;;;;;;;;4178130;34;20331;-69
2021/07/02 06:23:33;;;;;;;2.62;2.42;;;;;;;;;;4178022;34;20099;-68
2021/07/02 06:26:00;;;;;;;4.75;2.67;;;;;;;;;;4166297;34;20507;-68
2021/07/02 06:28:27;;;;;;;3.30;2.33;;;;;;;;;;4178076;34;20574;-69
2021/07/02 06:30:53;;;;;;;4.07;2.60;;;;;;;;;;4165751;34;20118;-70
2021/07/02 06:33:19;;;;;;;3.40;2.40;;;;;;;;;;4178180;34;20114;-69
2021/07/02 06:35:45;;;;;;;2.80;2.53;;;;;;;;;;4178019;34;20207;-68
2021/07/02 06:38:11;;;;;;;3.65;2.70;;;;;;;;;;4178029;34;20638;-68
2021/07/02 06:40:37;;;;;;;4.10;2.58;;;;;;;;;;4177686;34;20130;-69
2021/07/02 06:43:03;;;;;;;2.40;2.20;;;;;;;;;;4165157;34;20157;-69
2021/07/02 06:45:29;;;;;;;3.08;2.60;;;;;;;;;;4164822;34;20105;-68
2021/07/02 06:48:00;;;;;;;2.40;2.20;;;;;;;;;;4178082;34;20113;-69
2021/07/02 06:50:28;;;;;;;1.90;1.80;;;;;;;;;;4177930;34;20133;-69
2021/07/02 06:53:06;;;;;;;6.90;2.83;;;;;;;;;;4165470;34;20110;-68
2021/07/02 06:56:09;;;;;;;2.58;2.37;;;;;;;;;;4162245;34;20102;-68
2021/07/02 06:58:35;;;;;;;4.20;2.40;;;;;;;;;;4162424;34;20137;-68
2021/07/02 07:01:01;;;;;;;3.15;2.47;;;;;;;;;;4150583;34;20135;-67
2021/07/02 07:03:27;;;;;;;3.17;2.42;;;;;;;;;;4150541;34;20511;-68
2021/07/02 07:05:52;;;;;;;2.55;2.30;;;;;;;;;;4149087;34;20555;-68
2021/07/02 07:08:18;;;;;;;1.33;1.23;;;;;;;;;;4149301;34;20534;-68
2021/07/02 07:10:44;;;;;;;2.95;2.40;;;;;;;;;;4148932;34;20138;-68
2021/07/02 07:13:12;;;;;;;2.87;2.42;;;;;;;;;;4150414;34;20441;-69
2021/07/02 07:15:38;;;;;;;2.62;2.40;;;;;;;;;;4137893;34;20110;-68
2021/07/02 07:18:04;;;;;;;2.30;2.10;;;;;;;;;;4149179;34;20162;-68
2021/07/02 07:20:30;;;;;;;2.53;2.30;;;;;;;;;;4150311;34;20104;-69
2021/07/02 07:22:56;;;;;;;4.78;2.50;;;;;;;;;;4150464;34;20102;-68
2021/07/02 07:25:24;;;;;;;4.15;2.40;;;;;;;;;;4150593;34;20518;-66
2021/07/02 07:27:50;;;;;;;6.25;1.92;;;;;;;;;;4150288;34;20129;-68
2021/07/02 07:30:16;;;;;;;3.87;2.55;;;;;;;;;;4150211;34;20127;-68
2021/07/02 07:32:42;;;;;;;2.08;1.87;;;;;;;;;;4150719;34;20103;-69
2021/07/02 07:35:24;;;;;;;3.00;2.35;;;;;;;;;;4149109;34;20118;-69
2021/07/02 07:37:55;;;;;;;3.17;2.42;;;;;;;;;;4150474;34;20202;-70
2021/07/02 07:40:22;;;;;;;4.18;2.28;;;;;;;;;;4150087;34;20126;-68
2021/07/02 07:42:48;;;;;;;5.62;1.98;;;;;;;;;;4150273;34;20093;-68
2021/07/02 07:45:14;;;;;;;3.08;2.60;;;;;;;;;;4150089;34;20111;-68
2021/07/02 07:47:40;;;;;;;2.33;2.12;;;;;;;;;;4150232;34;20237;-68
2021/07/02 07:50:12;;;;;;;1.98;1.80;;;;;;;;;;4137816;34;20215;-69
2021/07/02 07:55:09;;;;;;;3.97;3.03;;;;;;;;;;4155418;34;20115;-68
2021/07/02 07:57:36;;;;;;;3.45;2.28;;;;;;;;;;4164070;34;20136;-69
2021/07/02 08:00:04;;;;;;;2.97;2.45;;;;;;;;;;4163624;34;20137;-68
2021/07/02 08:02:30;;;;;;;2.42;2.05;;;;;;;;;;4163682;34;20538;-69
2021/07/02 08:04:56;;;;;;;2.35;1.87;;;;;;;;;;4163538;34;20122;-69
2021/07/02 08:07:22;;;;;;;5.28;2.58;;;;;;;;;;4163669;34;20125;-69
2021/07/02 08:09:48;;;;;;;1.85;1.50;;;;;;;;;;4163606;34;20196;-69
2021/07/02 08:12:15;;;;;;;1.73;1.62;;;;;;;;;;4163583;34;20223;-69
2021/07/02 08:14:49;;;;;;;2.55;2.35;;;;;;;;;;4163701;34;20219;-69
2021/07/02 08:17:16;;;;;;;2.45;2.25;;;;;;;;;;4151476;34;20191;-69
2021/07/02 08:19:42;;;;;;;2.62;2.20;;;;;;;;;;4163602;34;20153;-68
2021/07/02 08:22:07;;;;;;;3.50;2.30;;;;;;;;;;4164523;34;20134;-68
2021/07/02 08:24:36;;;;;;;5.30;2.37;;;;;;;;;;4163685;34;20126;-68
2021/07/02 08:27:05;;;;;;;3.08;2.30;;;;;;;;;;4163913;34;20122;-68
2021/07/02 08:29:31;;;;;;;2.85;2.50;;;;;;;;;;4157410;34;20115;-68
2021/07/02 08:31:59;;;;;;;8.05;2.83;;;;;;;;;;4149978;34;20115;-68
2021/07/02 08:34:25;;;;;;;2.95;1.98;;;;;;;;;;4149501;34;20118;-70
2021/07/02 08:36:51;;;;;;;2.60;2.40;;;;;;;;;;4149862;34;20122;-68
2021/07/02 08:39:17;;;;;;;2.55;2.35;;;;;;;;;;4149810;34;20578;-68
2021/07/02 08:41:43;;;;;;;3.60;2.50;;;;;;;;;;4149695;34;20127;-68
2021/07/02 08:44:09;;;;;;;3.15;2.70;;;;;;;;;;4149892;34;20135;-70
2021/07/02 08:46:35;;;;;;;3.65;2.55;;;;;;;;;;4149867;34;20134;-70
2021/07/02 08:49:01;;;;;;;7.82;3.58;;;;;;;;;;4137331;34;20230;-66
2021/07/02 08:51:27;;;;;;;4.30;3.20;;;;;;;;;;4148461;34;20134;-68
2021/07/02 08:53:56;;;;;;;5.20;4.32;;;;;;;;;;4149979;34;20223;-68
2021/07/02 08:56:22;;;;;;;4.57;3.28;;;;;;;;;;4158783;34;20101;-68
2021/07/02 08:58:48;;;;;;;5.22;3.58;;;;;;;;;;4163117;34;20168;-69
2021/07/02 09:01:33;;;;;;;6.90;3.35;;;;;;;;;;4163128;34;20524;-67
2021/07/02 09:04:23;;;;;;;3.12;2.53;;;;;;;;;;4163144;34;20110;-68
2021/07/02 09:07:07;;;;;;;3.83;3.35;;;;;;;;;;4163115;34;20134;-67
2021/07/02 09:09:50;;;;;;;3.95;3.33;;;;;;;;;;4163966;34;20102;-69
2021/07/02 09:12:17;;;;;;;3.75;2.97;;;;;;;;;;4163106;34;20126;-69
2021/07/02 09:15:04;;;;;;;3.30;3.00;;;;;;;;;;4139464;34;20137;-68
2021/07/02 09:17:34;;;;;;;4.50;3.08;;;;;;;;;;4165279;34;20122;-67
2021/07/02 09:20:09;;;;;;;2.42;2.22;;;;;;;;;;4165324;34;20110;-67
2021/07/02 09:22:51;;;;;;;5.22;3.85;;;;;;;;;;4165269;34;20154;-68
2021/07/02 09:25:24;;;;;;;3.75;3.42;;;;;;;;;;4165069;34;20103;-68
2021/07/02 09:27:50;;;;;;;4.15;3.70;;;;;;;;;;4165251;34;20546;-69
2021/07/02 09:30:18;;;;;;;8.75;4.00;;;;;;;;;;4152558;34;20451;-69
2021/07/02 09:32:46;;;;;;;3.87;3.42;;;;;;;;;;4164990;34;20203;-68
2021/07/02 09:35:15;;;;;;;4.03;3.72;;;;;;;;;;4164814;34;20118;-69
2021/07/02 09:37:42;;;;;;;4.32;3.50;;;;;;;;;;4165300;34;20114;-68
2021/07/02 09:40:29;;;;;;;5.15;4.65;;;;;;;;;;4141268;34;20563;-69
2021/07/02 09:43:10;;;;;;;3.92;3.50;;;;;;;;;;4162262;34;20119;-69
2021/07/02 09:45:57;;;;;;;3.85;3.53;;;;;;;;;;4152178;34;20149;-69
2021/07/02 09:48:24;;;;;;;6.93;3.95;;;;;;;;;;4165168;34;20202;-68
2021/07/02 09:51:00;;;;;;;5.62;3.53;;;;;;;;;;4152511;34;20190;-67
2021/07/02 09:53:30;;;;;;;10.80;3.92;;;;;;;;;;4164692;34;20599;-69
2021/07/02 09:56:03;;;;;;;4.78;3.15;;;;;;;;;;4152413;34;20514;-69
2021/07/02 09:58:33;;;;;;;2.35;2.15;;;;;;;;;;4152440;34;20115;-69
2021/07/02 10:01:00;;;;;;;3.20;2.87;;;;;;;;;;4165195;34;20185;-69
2021/07/02 10:03:35;;;;;;;3.30;3.00;;;;;;;;;;4164897;34;20514;-69
2021/07/02 10:06:10;;;;;;;4.12;3.33;;;;;;;;;;4164669;34;20119;-69
2021/07/02 10:08:39;;;;;;;3.83;3.30;;;;;;;;;;4164588;34;20495;-69
2021/07/02 10:11:06;;;;;;;3.92;3.33;;;;;;;;;;4164925;34;20107;-68
2021/07/02 10:13:34;;;;;;;3.20;2.90;;;;;;;;;;4164713;34;20525;-69
2021/07/02 10:16:05;;;;;;;2.78;2.33;;;;;;;;;;4152108;34;20096;-68
2021/07/02 10:18:31;;;;;;;6.20;2.53;;;;;;;;;;4152148;34;20110;-68
2021/07/02 10:21:01;;;;;;;3.12;2.83;;;;;;;;;;4151962;34;20125;-67
2021/07/02 10:23:40;;;;;;;3.47;2.70;;;;;;;;;;4151798;34;20099;-67
2021/07/02 10:26:07;;;;;;;3.70;2.83;;;;;;;;;;4164756;34;20098;-67
2021/07/02 10:28:34;;;;;;;5.25;2.70;;;;;;;;;;4140455;34;20122;-67
2021/07/02 10:31:01;;;;;;;6.28;2.67;;;;;;;;;;4140666;34;20439;-66
2021/07/02 10:33:28;;;;;;;2.97;2.53;;;;;;;;;;4151908;34;20123;-68
2021/07/02 10:35:56;;;;;;;3.47;2.60;;;;;;;;;;4151677;34;20134;-68
2021/07/02 10:38:21;;;;;;;4.28;3.05;;;;;;;;;;4151631;34;20111;-67
2021/07/02 10:40:47;;;;;;;4.85;2.80;;;;;;;;;;4151909;34;20121;-67
2021/07/02 10:43:17;;;;;;;2.97;2.67;;;;;;;;;;4164631;34;20557;-69
2021/07/02 10:46:10;;;;;;;2.95;2.47;;;;;;;;;;4164262;34;20102;-68
2021/07/02 10:48:51;;;;;;;2.58;2.37;;;;;;;;;;4164633;34;20526;-69
2021/07/02 10:51:32;;;;;;;2.95;2.65;;;;;;;;;;4164273;34;20118;-67
2021/07/02 10:54:14;;;;;;;3.75;3.33;;;;;;;;;;4164259;34;20231;-68
2021/07/02 10:56:59;;;;;;;4.37;2.85;;;;;;;;;;4164450;34;20114;-68
2021/07/02 10:59:48;;;;;;;5.80;2.85;;;;;;;;;;4151656;34;20541;-67
2021/07/02 11:02:17;;;;;;;2.65;2.45;;;;;;;;;;4158765;34;20122;-67
2021/07/02 11:04:50;;;;;;;3.85;2.35;;;;;;;;;;4164505;34;20114;-68
2021/07/02 11:07:22;;;;;;;5.18;2.80;;;;;;;;;;4151882;34;20123;-67
2021/07/02 11:09:48;;;;;;;3.08;2.60;;;;;;;;;;4164034;34;20122;-68
2021/07/02 11:12:44;;;;;;;2.60;2.40;;;;;;;;;;4164392;34;20519;-68
2021/07/02 11:15:11;;;;;;;3.12;2.62;;;;;;;;;;4160766;34;20514;-67
2021/07/02 11:17:44;;;;;;;2.92;2.62;;;;;;;;;;4165043;34;20114;-67
2021/07/02 11:20:10;;;;;;;7.82;3.15;;;;;;;;;;4151446;34;20130;-68
2021/07/02 11:22:38;;;;;;;3.50;2.85;;;;;;;;;;4164399;34;20542;-68
2021/07/02 11:25:15;;;;;;;3.95;3.03;;;;;;;;;;4164096;34;20215;-69
2021/07/02 11:27:51;;;;;;;3.92;2.83;;;;;;;;;;4164231;34;20105;-69
2021/07/02 11:30:20;;;;;;;3.62;2.90;;;;;;;;;;4152085;34;20194;-68
2021/07/02 11:32:50;;;;;;;6.07;4.43;;;;;;;;;;4164167;34;20544;-68
2021/07/02 11:35:19;;;;;;;3.65;2.80;;;;;;;;;;4163914;34;20110;-69
2021/07/02 11:38:04;;;;;;;5.20;3.20;;;;;;;;;;4151739;34;20206;-68
2021/07/02 11:40:53;;;;;;;2.53;2.33;;;;;;;;;;4139720;34;20110;-67
2021/07/02 11:43:42;;;;;;;4.82;3.42;;;;;;;;;;4164109;34;20130;-67
2021/07/02 11:46:12;;;;;;;2.95;2.70;;;;;;;;;;4158120;34;20511;-68
2021/07/02 11:48:40;;;;;;;3.47;2.83;;;;;;;;;;4163680;34;20146;-68
2021/07/02 11:51:20;;;;;;;5.68;3.47;;;;;;;;;;4151355;34;20206;-67
2021/07/02 11:53:57;;;;;;;3.47;3.10;;;;;;;;;;4163640;34;20536;-67
2021/07/02 11:56:33;;;;;;;4.78;2.87;;;;;;;;;;4151611;34;20115;-68
2021/07/02 11:59:11;;;;;;;3.92;3.20;;;;;;;;;;4163669;34;20087;-68
2021/07/02 12:01:41;;;;;;;8.02;3.70;;;;;;;;;;4164046;34;20122;-68
2021/07/02 12:04:12;;;;;;;5.07;3.00;;;;;;;;;;4163595;34;20118;-68
2021/07/02 12:06:43;;;;;;;3.20;2.90;;;;;;;;;;4151943;34;20440;-69
2021/07/02 12:09:09;;;;;;;4.45;2.65;;;;;;;;;;4163660;34;20298;-68
2021/07/02 12:11:57;;;;;;;3.87;3.12;;;;;;;;;;4163784;34;20537;-68
2021/07/02 12:14:23;;;;;;;3.40;3.03;;;;;;;;;;4163460;34;20129;-68
2021/07/02 12:16:50;;;;;;;3.03;2.70;;;;;;;;;;4163739;34;20142;-67
2021/07/02 12:19:18;;;;;;;3.33;3.03;;;;;;;;;;4163619;34;20545;-67
2021/07/02 12:22:09;;;;;;;2.95;2.70;;;;;;;;;;4163574;34;20205;-68
2021/07/02 12:24:42;;;;;;;4.07;2.90;;;;;;;;;;4163620;34;20107;-67
2021/07/02 12:27:19;;;;;;;3.20;2.83;;;;;;;;;;4163520;34;20121;-71
2021/07/02 12:29:52;;;;;;;3.08;2.75;;;;;;;;;;4163363;34;20098;-68
2021/07/02 12:32:19;;;;;;;3.03;2.72;;;;;;;;;;4151710;34;20126;-68
2021/07/02 12:34:45;;;;;;;3.17;2.67;;;;;;;;;;4150717;34;20110;-67
2021/07/02 12:37:12;;;;;;;2.83;2.53;;;;;;;;;;4163560;34;20106;-68
2021/07/02 12:39:43;;;;;;;3.17;2.70;;;;;;;;;;4150623;34;20174;-68
2021/07/02 12:42:10;;;;;;;4.60;2.53;;;;;;;;;;4163334;34;20198;-69
2021/07/02 12:44:37;;;;;;;2.58;2.37;;;;;;;;;;4163467;34;20134;-69
2021/07/02 12:47:07;;;;;;;3.83;2.65;;;;;;;;;;4163357;34;20219;-67
2021/07/02 12:49:46;;;;;;;2.87;2.60;;;;;;;;;;4150596;34;20223;-69
2021/07/02 12:55:17;;;;;;;3.50;2.92;;;;;;;;;;4150779;34;20118;-68
2021/07/02 12:57:49;;;;;;;4.15;2.92;;;;;;;;;;4165511;34;20529;-69
2021/07/02 13:00:24;;;;;;;3.22;2.92;;;;;;;;;;4165105;34;20097;-69
2021/07/02 13:02:52;;;;;;;2.87;2.65;;;;;;;;;;4152854;34;20115;-69
2021/07/02 13:05:23;;;;;;;2.70;2.40;;;;;;;;;;4165608;34;20095;-69
2021/07/02 13:07:49;;;;;;;5.30;2.55;;;;;;;;;;4165470;34;20209;-67
2021/07/02 13:10:23;;;;;;;2.53;2.20;;;;;;;;;;4165274;34;20113;-69
2021/07/02 13:13:06;;;;;;;6.30;2.75;;;;;;;;;;4152555;34;20202;-69
2021/07/02 13:15:34;;;;;;;3.37;2.45;;;;;;;;;;4137224;34;20193;-68
2021/07/02 13:18:00;;;;;;;2.80;2.50;;;;;;;;;;4138071;34;20088;-69
2021/07/02 13:20:43;;;;;;;4.30;3.22;;;;;;;;;;4137938;34;20111;-69
2021/07/02 13:23:09;;;;;;;3.35;2.75;;;;;;;;;;4138223;34;20119;-68
2021/07/02 13:25:35;;;;;;;3.20;2.35;;;;;;;;;;4138083;34;20232;-67
2021/07/02 13:28:01;;;;;;;8.90;3.42;;;;;;;;;;4136391;34;20139;-68
2021/07/02 13:30:28;;;;;;;4.80;2.87;;;;;;;;;;4136425;34;20192;-67
2021/07/02 13:33:11;;;;;;;2.97;2.60;;;;;;;;;;4136863;34;20143;-68
2021/07/02 13:35:38;;;;;;;6.18;2.87;;;;;;;;;;4125526;34;20116;-67
2021/07/02 13:38:07;;;;;;;4.18;2.72;;;;;;;;;;4142256;34;20479;-69
2021/07/02 13:40:37;;;;;;;3.80;3.17;;;;;;;;;;4151077;34;20154;-67
2021/07/02 13:43:14;;;;;;;3.78;3.05;;;;;;;;;;4151785;34;20126;-66
2021/07/02 13:45:59;;;;;;;4.90;3.37;;;;;;;;;;4151371;34;20171;-64
2021/07/02 13:48:25;;;;;;;3.37;2.97;;;;;;;;;;4151174;34;20122;-65
2021/07/02 13:50:51;;;;;;;6.32;3.70;;;;;;;;;;4151468;34;20131;-65
2021/07/02 13:53:19;;;;;;;3.30;2.80;;;;;;;;;;4151189;34;20126;-66
2021/07/02 13:55:45;;;;;;;4.07;3.58;;;;;;;;;;4138912;34;20336;-69
2021/07/02 13:58:11;;;;;;;5.62;3.17;;;;;;;;;;4151495;34;20115;-69
2021/07/02 14:00:41;;;;;;;2.92;2.20;;;;;;;;;;4149714;34;20154;-68
2021/07/02 14:03:07;;;;;;;3.58;2.72;;;;;;;;;;4150938;34;20122;-65
2021/07/02 14:05:34;;;;;;;4.50;3.10;;;;;;;;;;4149727;34;20130;-66
2021/07/02 14:08:00;;;;;;;2.97;2.65;;;;;;;;;;4151459;34;20206;-64
2021/07/02 14:10:27;;;;;;;3.17;2.30;;;;;;;;;;4150929;34;20534;-67
2021/07/02 14:12:53;;;;;;;3.05;2.62;;;;;;;;;;4149838;34;20126;-67
2021/07/02 14:15:20;;;;;;;4.78;3.10;;;;;;;;;;4150893;34;20138;-65
2021/07/02 14:17:46;;;;;;;3.80;3.20;;;;;;;;;;4151123;34;20095;-65
2021/07/02 14:20:12;;;;;;;4.20;2.90;;;;;;;;;;4138730;34;20126;-66
2021/07/02 14:22:43;;;;;;;5.18;2.78;;;;;;;;;;4151052;34;20478;-68
2021/07/02 14:25:13;;;;;;;5.00;3.22;;;;;;;;;;4139184;34;20604;-66
2021/07/02 14:27:39;;;;;;;3.85;3.28;;;;;;;;;;4151141;34;20454;-68
2021/07/02 14:30:06;;;;;;;4.72;3.45;;;;;;;;;;4150781;34;20129;-66
2021/07/02 14:32:32;;;;;;;4.60;3.50;;;;;;;;;;4150885;34;20118;-68
2021/07/02 14:34:58;;;;;;;10.25;3.87;;;;;;;;;;4150769;34;20633;-68
2021/07/02 14:37:24;;;;;;;5.62;3.45;;;;;;;;;;4138249;34;20463;-68
2021/07/02 14:39:50;;;;;;;5.03;3.45;;;;;;;;;;4158733;34;20173;-66
2021/07/02 14:42:16;;;;;;;3.60;3.15;;;;;;;;;;4164440;34;20134;-70
2021/07/02 14:44:42;;;;;;;7.70;3.97;;;;;;;;;;4151968;34;20530;-69
2021/07/02 14:47:15;;;;;;;5.97;3.72;;;;;;;;;;4164753;34;20105;-65
2021/07/02 14:49:42;;;;;;;6.40;3.58;;;;;;;;;;4164375;34;20202;-65
2021/07/02 14:52:08;;;;;;;7.47;3.60;;;;;;;;;;4164704;34;20091;-67
2021/07/02 14:54:34;;;;;;;6.18;3.92;;;;;;;;;;4151317;34;20111;-68
2021/07/02 14:57:00;;;;;;;5.45;3.90;;;;;;;;;;4158977;34;20595;-67
2021/07/02 14:59:26;;;;;;;9.23;4.32;;;;;;;;;;4150438;34;20198;-68
2021/07/02 15:01:52;;;;;;;12.10;4.43;;;;;;;;;;4150755;34;20130;-68
2021/07/02 15:04:18;;;;;;;8.40;4.28;;;;;;;;;;4138147;34;20135;-66
2021/07/02 15:06:43;;;;;;;9.95;3.58;;;;;;;;;;4150597;34;20127;-68
2021/07/02 15:09:09;;;;;;;3.65;3.15;;;;;;;;;;4150752;34;20235;-66
2021/07/02 15:11:35;;;;;;;5.28;4.22;;;;;;;;;;4149950;34;20122;-68
2021/07/02 15:14:03;;;;;;;4.70;3.60;;;;;;;;;;4150441;34;20111;-66
2021/07/02 15:16:30;;;;;;;6.35;4.00;;;;;;;;;;4150450;34;20111;-66
2021/07/02 15:18:56;;;;;;;6.80;3.80;;;;;;;;;;4138184;34;20119;-66
2021/07/02 15:21:21;;;;;;;6.68;4.75;;;;;;;;;;4150687;34;20145;-66
2021/07/02 15:23:47;;;;;;;14.20;4.40;;;;;;;;;;4138008;34;20122;-67
2021/07/02 15:26:13;;;;;;;5.57;3.67;;;;;;;;;;4150506;34;20154;-66